sensor_id;sensor_type;location;lat;lon;timestamp;P1;durP1;ratioP1;P2;durP2;ratioP2
80247;SDS011;69560;52.206;21.018;2023-06-04T00:00:10;10.60;;;6.80;;
80247;SDS011;69560;52.206;21.018;2023-06-04T00:03:02;15.50;;;8.10;;
80247;SDS011;69560;52.206;21.018;2023-06-04T00:05:39;8.50;;;5.50;;
80247;SDS011;69560;52.206;21.018;2023-06-04T00:08:06;11.20;;;5.60;;
80247;SDS011;69560;52.206;21.018;2023-06-04T00:10:34;8.90;;;5.00;;
80247;SDS011;69560;52.206;21.018;2023-06-04T00:13:01;7.50;;;5.30;;
80247;SDS011;69560;52.206;21.018;2023-06-04T00:15:51;7.80;;;5.60;;
80247;SDS011;69560;52.206;21.018;2023-06-04T00:18:26;11.50;;;6.00;;
80247;SDS011;69560;52.206;21.018;2023-06-04T00:20:59;9.60;;;6.00;;
80247;SDS011;69560;52.206;21.018;2023-06-04T00:23:29;10.80;;;5.70;;
80247;SDS011;69560;52.206;21.018;2023-06-04T00:25:55;7.50;;;5.40;;
80247;SDS011;69560;52.206;21.018;2023-06-04T00:28:25;10.60;;;5.50;;
80247;SDS011;69560;52.206;21.018;2023-06-04T00:30:54;10.80;;;5.40;;
80247;SDS011;69560;52.206;21.018;2023-06-04T00:33:27;9.80;;;5.90;;
80247;SDS011;69560;52.206;21.018;2023-06-04T00:36:16;8.20;;;5.80;;
80247;SDS011;69560;52.206;21.018;2023-06-04T00:38:52;10.60;;;5.70;;
80247;SDS011;69560;52.206;21.018;2023-06-04T00:41:28;10.00;;;5.70;;
80247;SDS011;69560;52.206;21.018;2023-06-04T00:43:59;8.90;;;5.00;;
80247;SDS011;69560;52.206;21.018;2023-06-04T00:46:45;9.00;;;5.30;;
80247;SDS011;69560;52.206;21.018;2023-06-04T00:49:29;9.90;;;4.90;;
80247;SDS011;69560;52.206;21.018;2023-06-04T00:52:09;8.10;;;4.80;;
80247;SDS011;69560;52.206;21.018;2023-06-04T00:54:47;9.10;;;5.50;;
80247;SDS011;69560;52.206;21.018;2023-06-04T00:57:21;9.30;;;5.60;;
80247;SDS011;69560;52.206;21.018;2023-06-04T01:02:47;9.60;;;5.00;;
80247;SDS011;69560;52.206;21.018;2023-06-04T01:08:20;8.00;;;4.80;;
80247;SDS011;69560;52.206;21.018;2023-06-04T01:10:52;10.50;;;5.40;;
80247;SDS011;69560;52.206;21.018;2023-06-04T01:13:24;8.40;;;5.00;;
80247;SDS011;69560;52.206;21.018;2023-06-04T01:15:54;9.50;;;5.10;;
80247;SDS011;69560;52.206;21.018;2023-06-04T01:18:26;11.40;;;5.10;;
80247;SDS011;69560;52.206;21.018;2023-06-04T01:21:27;9.60;;;5.00;;
80247;SDS011;69560;52.206;21.018;2023-06-04T01:24:11;6.50;;;4.80;;
80247;SDS011;69560;52.206;21.018;2023-06-04T01:26:53;8.90;;;4.70;;
80247;SDS011;69560;52.206;21.018;2023-06-04T01:29:23;7.60;;;5.00;;
80247;SDS011;69560;52.206;21.018;2023-06-04T01:31:59;6.20;;;4.40;;
80247;SDS011;69560;52.206;21.018;2023-06-04T01:34:46;6.50;;;4.80;;
80247;SDS011;69560;52.206;21.018;2023-06-04T01:37:28;8.60;;;4.60;;
80247;SDS011;69560;52.206;21.018;2023-06-04T01:40:04;7.10;;;4.00;;
80247;SDS011;69560;52.206;21.018;2023-06-04T01:43:05;6.20;;;4.10;;
80247;SDS011;69560;52.206;21.018;2023-06-04T01:48:15;9.90;;;5.10;;
80247;SDS011;69560;52.206;21.018;2023-06-04T01:50:53;9.50;;;4.20;;
80247;SDS011;69560;52.206;21.018;2023-06-04T01:53:23;9.10;;;3.80;;
80247;SDS011;69560;52.206;21.018;2023-06-04T01:55:55;7.10;;;4.50;;
80247;SDS011;69560;52.206;21.018;2023-06-04T01:58:25;9.50;;;4.20;;
80247;SDS011;69560;52.206;21.018;2023-06-04T02:01:27;9.10;;;4.30;;
80247;SDS011;69560;52.206;21.018;2023-06-04T02:04:10;4.50;;;3.40;;
80247;SDS011;69560;52.206;21.018;2023-06-04T02:07:03;6.90;;;3.90;;
80247;SDS011;69560;52.206;21.018;2023-06-04T02:12:03;7.10;;;3.70;;
80247;SDS011;69560;52.206;21.018;2023-06-04T02:14:41;6.50;;;3.50;;
80247;SDS011;69560;52.206;21.018;2023-06-04T02:17:19;6.50;;;4.00;;
80247;SDS011;69560;52.206;21.018;2023-06-04T02:19:58;6.90;;;3.80;;
80247;SDS011;69560;52.206;21.018;2023-06-04T02:22:37;7.50;;;4.00;;
80247;SDS011;69560;52.206;21.018;2023-06-04T02:25:09;7.10;;;4.10;;
80247;SDS011;69560;52.206;21.018;2023-06-04T02:27:42;6.80;;;3.60;;
80247;SDS011;69560;52.206;21.018;2023-06-04T02:30:22;5.40;;;3.30;;
80247;SDS011;69560;52.206;21.018;2023-06-04T02:32:54;7.30;;;3.60;;
80247;SDS011;69560;52.206;21.018;2023-06-04T02:35:24;6.00;;;4.10;;
80247;SDS011;69560;52.206;21.018;2023-06-04T02:38:11;6.20;;;3.70;;
80247;SDS011;69560;52.206;21.018;2023-06-04T02:40:43;8.30;;;3.40;;
80247;SDS011;69560;52.206;21.018;2023-06-04T02:43:15;5.10;;;3.40;;
80247;SDS011;69560;52.206;21.018;2023-06-04T02:45:44;8.00;;;3.50;;
80247;SDS011;69560;52.206;21.018;2023-06-04T02:48:31;4.60;;;3.20;;
80247;SDS011;69560;52.206;21.018;2023-06-04T02:51:09;6.90;;;3.40;;
80247;SDS011;69560;52.206;21.018;2023-06-04T02:53:39;6.90;;;3.40;;
80247;SDS011;69560;52.206;21.018;2023-06-04T02:56:08;5.70;;;3.70;;
80247;SDS011;69560;52.206;21.018;2023-06-04T02:58:50;5.00;;;3.50;;
80247;SDS011;69560;52.206;21.018;2023-06-04T03:01:38;12.80;;;3.50;;
80247;SDS011;69560;52.206;21.018;2023-06-04T03:04:40;5.70;;;3.40;;
80247;SDS011;69560;52.206;21.018;2023-06-04T03:07:30;6.10;;;3.30;;
80247;SDS011;69560;52.206;21.018;2023-06-04T03:10:11;5.30;;;3.20;;
80247;SDS011;69560;52.206;21.018;2023-06-04T03:13:08;7.30;;;3.20;;
80247;SDS011;69560;52.206;21.018;2023-06-04T03:16:30;7.00;;;3.50;;
80247;SDS011;69560;52.206;21.018;2023-06-04T03:19:00;5.10;;;3.40;;
80247;SDS011;69560;52.206;21.018;2023-06-04T03:21:29;4.40;;;3.20;;
80247;SDS011;69560;52.206;21.018;2023-06-04T03:24:20;5.00;;;3.40;;
80247;SDS011;69560;52.206;21.018;2023-06-04T03:26:52;4.80;;;3.40;;
80247;SDS011;69560;52.206;21.018;2023-06-04T03:29:26;7.40;;;3.70;;
80247;SDS011;69560;52.206;21.018;2023-06-04T03:32:03;3.70;;;2.90;;
80247;SDS011;69560;52.206;21.018;2023-06-04T03:34:48;5.00;;;3.10;;
80247;SDS011;69560;52.206;21.018;2023-06-04T03:37:25;4.70;;;2.90;;
80247;SDS011;69560;52.206;21.018;2023-06-04T03:40:13;4.20;;;3.10;;
80247;SDS011;69560;52.206;21.018;2023-06-04T03:43:01;8.10;;;3.30;;
80247;SDS011;69560;52.206;21.018;2023-06-04T03:45:41;4.50;;;3.10;;
80247;SDS011;69560;52.206;21.018;2023-06-04T03:48:16;3.90;;;3.10;;
80247;SDS011;69560;52.206;21.018;2023-06-04T03:50:45;4.50;;;3.10;;
80247;SDS011;69560;52.206;21.018;2023-06-04T03:53:22;6.30;;;3.00;;
80247;SDS011;69560;52.206;21.018;2023-06-04T03:56:05;6.60;;;3.00;;
80247;SDS011;69560;52.206;21.018;2023-06-04T03:58:42;8.00;;;3.30;;
80247;SDS011;69560;52.206;21.018;2023-06-04T04:01:13;6.10;;;3.10;;
80247;SDS011;69560;52.206;21.018;2023-06-04T04:04:02;4.40;;;3.20;;
80247;SDS011;69560;52.206;21.018;2023-06-04T04:06:34;6.00;;;3.20;;
80247;SDS011;69560;52.206;21.018;2023-06-04T04:09:03;4.60;;;3.10;;
80247;SDS011;69560;52.206;21.018;2023-06-04T04:11:35;10.80;;;3.00;;
80247;SDS011;69560;52.206;21.018;2023-06-04T04:14:14;5.30;;;3.50;;
80247;SDS011;69560;52.206;21.018;2023-06-04T04:16:47;7.30;;;3.60;;
80247;SDS011;69560;52.206;21.018;2023-06-04T04:19:26;7.60;;;3.60;;
80247;SDS011;69560;52.206;21.018;2023-06-04T04:22:04;5.10;;;3.30;;
80247;SDS011;69560;52.206;21.018;2023-06-04T04:24:38;5.40;;;3.20;;
80247;SDS011;69560;52.206;21.018;2023-06-04T04:27:40;5.70;;;3.10;;
80247;SDS011;69560;52.206;21.018;2023-06-04T04:30:08;5.80;;;3.40;;
80247;SDS011;69560;52.206;21.018;2023-06-04T04:32:38;4.40;;;3.20;;
80247;SDS011;69560;52.206;21.018;2023-06-04T04:35:19;4.20;;;2.80;;
80247;SDS011;69560;52.206;21.018;2023-06-04T04:38:06;5.60;;;2.70;;
80247;SDS011;69560;52.206;21.018;2023-06-04T04:40:54;4.50;;;2.80;;
80247;SDS011;69560;52.206;21.018;2023-06-04T04:43:32;3.90;;;3.10;;
80247;SDS011;69560;52.206;21.018;2023-06-04T04:46:07;7.10;;;3.10;;
80247;SDS011;69560;52.206;21.018;2023-06-04T04:48:45;7.80;;;3.30;;
80247;SDS011;69560;52.206;21.018;2023-06-04T04:51:22;3.50;;;2.40;;
80247;SDS011;69560;52.206;21.018;2023-06-04T04:53:55;4.60;;;3.10;;
80247;SDS011;69560;52.206;21.018;2023-06-04T04:56:24;7.10;;;2.70;;
80247;SDS011;69560;52.206;21.018;2023-06-04T04:58:56;4.60;;;2.60;;
80247;SDS011;69560;52.206;21.018;2023-06-04T05:01:46;7.30;;;3.00;;
80247;SDS011;69560;52.206;21.018;2023-06-04T05:04:13;7.40;;;3.10;;
80247;SDS011;69560;52.206;21.018;2023-06-04T05:06:40;2.90;;;2.40;;
80247;SDS011;69560;52.206;21.018;2023-06-04T05:09:07;5.50;;;2.40;;
80247;SDS011;69560;52.206;21.018;2023-06-04T05:11:37;5.70;;;3.10;;
80247;SDS011;69560;52.206;21.018;2023-06-04T05:14:10;6.50;;;2.20;;
80247;SDS011;69560;52.206;21.018;2023-06-04T05:19:53;7.50;;;2.60;;
80247;SDS011;69560;52.206;21.018;2023-06-04T05:22:26;5.10;;;2.70;;
80247;SDS011;69560;52.206;21.018;2023-06-04T05:25:01;7.40;;;2.70;;
80247;SDS011;69560;52.206;21.018;2023-06-04T05:27:39;3.30;;;2.40;;
80247;SDS011;69560;52.206;21.018;2023-06-04T05:30:14;3.60;;;2.50;;
80247;SDS011;69560;52.206;21.018;2023-06-04T05:32:47;5.20;;;2.40;;
80247;SDS011;69560;52.206;21.018;2023-06-04T05:35:17;3.80;;;2.30;;
80247;SDS011;69560;52.206;21.018;2023-06-04T05:37:47;3.90;;;2.70;;
80247;SDS011;69560;52.206;21.018;2023-06-04T05:40:24;4.10;;;2.50;;
80247;SDS011;69560;52.206;21.018;2023-06-04T05:42:51;5.50;;;2.60;;
80247;SDS011;69560;52.206;21.018;2023-06-04T05:45:23;4.30;;;2.30;;
80247;SDS011;69560;52.206;21.018;2023-06-04T05:47:50;7.40;;;2.50;;
80247;SDS011;69560;52.206;21.018;2023-06-04T05:50:40;4.90;;;2.60;;
80247;SDS011;69560;52.206;21.018;2023-06-04T05:53:07;2.80;;;2.30;;
80247;SDS011;69560;52.206;21.018;2023-06-04T05:55:33;3.80;;;2.00;;
80247;SDS011;69560;52.206;21.018;2023-06-04T05:58:00;3.10;;;2.30;;
80247;SDS011;69560;52.206;21.018;2023-06-04T06:00:27;3.50;;;1.90;;
80247;SDS011;69560;52.206;21.018;2023-06-04T06:02:56;4.00;;;2.00;;
80247;SDS011;69560;52.206;21.018;2023-06-04T06:05:23;4.10;;;2.20;;
80247;SDS011;69560;52.206;21.018;2023-06-04T06:07:50;2.50;;;2.10;;
80247;SDS011;69560;52.206;21.018;2023-06-04T06:10:17;3.20;;;2.10;;
80247;SDS011;69560;52.206;21.018;2023-06-04T06:12:45;6.50;;;2.20;;
80247;SDS011;69560;52.206;21.018;2023-06-04T06:15:12;2.10;;;1.80;;
80247;SDS011;69560;52.206;21.018;2023-06-04T06:17:39;2.60;;;2.00;;
80247;SDS011;69560;52.206;21.018;2023-06-04T06:20:06;3.00;;;1.80;;
80247;SDS011;69560;52.206;21.018;2023-06-04T06:22:46;4.10;;;1.60;;
80247;SDS011;69560;52.206;21.018;2023-06-04T06:25:14;3.60;;;1.80;;
80247;SDS011;69560;52.206;21.018;2023-06-04T06:27:42;3.80;;;1.80;;
80247;SDS011;69560;52.206;21.018;2023-06-04T06:30:18;3.20;;;1.60;;
80247;SDS011;69560;52.206;21.018;2023-06-04T06:32:45;2.80;;;1.40;;
80247;SDS011;69560;52.206;21.018;2023-06-04T06:35:12;4.70;;;1.50;;
80247;SDS011;69560;52.206;21.018;2023-06-04T06:37:42;5.70;;;1.80;;
80247;SDS011;69560;52.206;21.018;2023-06-04T06:40:09;4.00;;;1.10;;
80247;SDS011;69560;52.206;21.018;2023-06-04T06:42:40;3.10;;;1.40;;
80247;SDS011;69560;52.206;21.018;2023-06-04T06:45:07;3.40;;;1.50;;
80247;SDS011;69560;52.206;21.018;2023-06-04T06:47:34;5.50;;;1.10;;
80247;SDS011;69560;52.206;21.018;2023-06-04T06:50:01;4.50;;;1.10;;
80247;SDS011;69560;52.206;21.018;2023-06-04T06:52:28;4.20;;;1.40;;
80247;SDS011;69560;52.206;21.018;2023-06-04T06:54:55;2.40;;;1.30;;
80247;SDS011;69560;52.206;21.018;2023-06-04T06:57:32;1.80;;;1.30;;
80247;SDS011;69560;52.206;21.018;2023-06-04T06:59:59;4.20;;;1.50;;
80247;SDS011;69560;52.206;21.018;2023-06-04T07:02:26;4.80;;;1.00;;
80247;SDS011;69560;52.206;21.018;2023-06-04T07:05:04;3.30;;;1.10;;
80247;SDS011;69560;52.206;21.018;2023-06-04T07:07:34;3.30;;;1.20;;
80247;SDS011;69560;52.206;21.018;2023-06-04T07:10:04;1.70;;;0.70;;
80247;SDS011;69560;52.206;21.018;2023-06-04T07:12:34;2.00;;;1.10;;
80247;SDS011;69560;52.206;21.018;2023-06-04T07:15:01;2.10;;;0.90;;
80247;SDS011;69560;52.206;21.018;2023-06-04T07:17:30;2.40;;;1.30;;
80247;SDS011;69560;52.206;21.018;2023-06-04T07:20:11;3.00;;;1.30;;
80247;SDS011;69560;52.206;21.018;2023-06-04T07:22:41;2.60;;;1.10;;
80247;SDS011;69560;52.206;21.018;2023-06-04T07:25:11;1.40;;;0.80;;
80247;SDS011;69560;52.206;21.018;2023-06-04T07:27:40;1.90;;;0.90;;
80247;SDS011;69560;52.206;21.018;2023-06-04T07:30:10;3.00;;;1.00;;
80247;SDS011;69560;52.206;21.018;2023-06-04T07:32:37;4.20;;;1.30;;
80247;SDS011;69560;52.206;21.018;2023-06-04T07:35:08;1.80;;;1.10;;
80247;SDS011;69560;52.206;21.018;2023-06-04T07:37:38;1.80;;;1.00;;
80247;SDS011;69560;52.206;21.018;2023-06-04T07:40:05;2.30;;;0.90;;
80247;SDS011;69560;52.206;21.018;2023-06-04T07:42:40;3.80;;;0.90;;
80247;SDS011;69560;52.206;21.018;2023-06-04T07:45:13;1.90;;;1.00;;
80247;SDS011;69560;52.206;21.018;2023-06-04T07:47:41;2.00;;;0.90;;
80247;SDS011;69560;52.206;21.018;2023-06-04T07:50:11;2.30;;;1.20;;
80247;SDS011;69560;52.206;21.018;2023-06-04T07:52:38;1.60;;;1.00;;
80247;SDS011;69560;52.206;21.018;2023-06-04T07:55:05;2.20;;;1.20;;
80247;SDS011;69560;52.206;21.018;2023-06-04T07:57:32;4.90;;;1.20;;
80247;SDS011;69560;52.206;21.018;2023-06-04T07:59:59;1.80;;;1.10;;
80247;SDS011;69560;52.206;21.018;2023-06-04T08:02:28;3.70;;;1.10;;
80247;SDS011;69560;52.206;21.018;2023-06-04T08:04:57;2.90;;;1.00;;
80247;SDS011;69560;52.206;21.018;2023-06-04T08:07:26;4.30;;;1.10;;
80247;SDS011;69560;52.206;21.018;2023-06-04T08:09:53;3.50;;;1.40;;
80247;SDS011;69560;52.206;21.018;2023-06-04T08:12:22;3.20;;;1.20;;
80247;SDS011;69560;52.206;21.018;2023-06-04T08:14:49;1.70;;;1.10;;
80247;SDS011;69560;52.206;21.018;2023-06-04T08:17:27;4.00;;;1.20;;
80247;SDS011;69560;52.206;21.018;2023-06-04T08:19:53;3.30;;;1.40;;
80247;SDS011;69560;52.206;21.018;2023-06-04T08:22:24;3.20;;;1.30;;
80247;SDS011;69560;52.206;21.018;2023-06-04T08:24:51;4.00;;;1.10;;
80247;SDS011;69560;52.206;21.018;2023-06-04T08:27:18;2.60;;;1.00;;
80247;SDS011;69560;52.206;21.018;2023-06-04T08:29:49;4.80;;;1.10;;
80247;SDS011;69560;52.206;21.018;2023-06-04T08:32:19;3.30;;;1.10;;
80247;SDS011;69560;52.206;21.018;2023-06-04T08:34:46;1.70;;;0.80;;
80247;SDS011;69560;52.206;21.018;2023-06-04T08:37:12;1.90;;;0.90;;
80247;SDS011;69560;52.206;21.018;2023-06-04T08:39:39;0.70;;;0.70;;
80247;SDS011;69560;52.206;21.018;2023-06-04T08:42:09;1.50;;;0.90;;
80247;SDS011;69560;52.206;21.018;2023-06-04T08:44:50;1.60;;;0.70;;
80247;SDS011;69560;52.206;21.018;2023-06-04T08:47:29;10.20;;;1.20;;
80247;SDS011;69560;52.206;21.018;2023-06-04T08:50:03;1.90;;;0.60;;
80247;SDS011;69560;52.206;21.018;2023-06-04T08:52:37;0.70;;;0.60;;
80247;SDS011;69560;52.206;21.018;2023-06-04T08:55:06;1.10;;;0.80;;
80247;SDS011;69560;52.206;21.018;2023-06-04T08:57:34;2.40;;;1.00;;
80247;SDS011;69560;52.206;21.018;2023-06-04T09:02:46;1.50;;;0.70;;
80247;SDS011;69560;52.206;21.018;2023-06-04T09:05:23;2.50;;;0.70;;
80247;SDS011;69560;52.206;21.018;2023-06-04T09:07:53;1.90;;;0.70;;
80247;SDS011;69560;52.206;21.018;2023-06-04T09:10:32;2.00;;;0.70;;
80247;SDS011;69560;52.206;21.018;2023-06-04T09:13:01;2.80;;;0.60;;
80247;SDS011;69560;52.206;21.018;2023-06-04T09:15:45;1.30;;;0.70;;
80247;SDS011;69560;52.206;21.018;2023-06-04T09:18:15;2.50;;;0.70;;
80247;SDS011;69560;52.206;21.018;2023-06-04T09:20:42;3.00;;;0.60;;
80247;SDS011;69560;52.206;21.018;2023-06-04T09:23:12;1.40;;;0.70;;
80247;SDS011;69560;52.206;21.018;2023-06-04T09:25:44;1.20;;;0.80;;
80247;SDS011;69560;52.206;21.018;2023-06-04T09:28:16;1.40;;;0.70;;
80247;SDS011;69560;52.206;21.018;2023-06-04T09:30:51;4.50;;;1.00;;
80247;SDS011;69560;52.206;21.018;2023-06-04T09:33:21;1.50;;;0.70;;
80247;SDS011;69560;52.206;21.018;2023-06-04T09:35:56;2.40;;;0.90;;
80247;SDS011;69560;52.206;21.018;2023-06-04T09:38:33;1.20;;;0.80;;
80247;SDS011;69560;52.206;21.018;2023-06-04T09:41:03;2.70;;;0.80;;
80247;SDS011;69560;52.206;21.018;2023-06-04T09:43:37;2.70;;;1.00;;
80247;SDS011;69560;52.206;21.018;2023-06-04T09:46:16;4.20;;;1.50;;
80247;SDS011;69560;52.206;21.018;2023-06-04T09:48:44;2.40;;;1.00;;
80247;SDS011;69560;52.206;21.018;2023-06-04T09:51:14;2.10;;;0.70;;
80247;SDS011;69560;52.206;21.018;2023-06-04T09:54:21;1.20;;;0.60;;
80247;SDS011;69560;52.206;21.018;2023-06-04T09:56:40;2.30;;;0.80;;
80247;SDS011;69560;52.206;21.018;2023-06-04T09:59:10;1.70;;;0.60;;
80247;SDS011;69560;52.206;21.018;2023-06-04T10:01:41;2.90;;;0.70;;
80247;SDS011;69560;52.206;21.018;2023-06-04T10:06:38;1.10;;;0.50;;
80247;SDS011;69560;52.206;21.018;2023-06-04T10:09:11;0.60;;;0.60;;
80247;SDS011;69560;52.206;21.018;2023-06-04T10:11:40;1.60;;;0.90;;
80247;SDS011;69560;52.206;21.018;2023-06-04T10:14:19;2.00;;;0.70;;
80247;SDS011;69560;52.206;21.018;2023-06-04T10:16:49;2.70;;;0.70;;
80247;SDS011;69560;52.206;21.018;2023-06-04T10:19:23;3.90;;;0.70;;
80247;SDS011;69560;52.206;21.018;2023-06-04T10:21:51;2.40;;;0.80;;
80247;SDS011;69560;52.206;21.018;2023-06-04T10:24:20;2.70;;;0.70;;
80247;SDS011;69560;52.206;21.018;2023-06-04T10:26:53;3.20;;;0.70;;
80247;SDS011;69560;52.206;21.018;2023-06-04T10:29:27;2.00;;;0.80;;
80247;SDS011;69560;52.206;21.018;2023-06-04T10:31:56;3.90;;;0.80;;
80247;SDS011;69560;52.206;21.018;2023-06-04T10:34:23;1.40;;;0.70;;
80247;SDS011;69560;52.206;21.018;2023-06-04T10:36:53;2.30;;;0.60;;
80247;SDS011;69560;52.206;21.018;2023-06-04T10:41:59;3.00;;;0.50;;
80247;SDS011;69560;52.206;21.018;2023-06-04T10:44:45;2.70;;;0.60;;
80247;SDS011;69560;52.206;21.018;2023-06-04T10:49:53;3.30;;;0.70;;
80247;SDS011;69560;52.206;21.018;2023-06-04T10:52:22;2.50;;;0.50;;
80247;SDS011;69560;52.206;21.018;2023-06-04T10:54:51;0.80;;;0.60;;
80247;SDS011;69560;52.206;21.018;2023-06-04T10:57:36;2.70;;;0.70;;
80247;SDS011;69560;52.206;21.018;2023-06-04T11:00:07;4.00;;;0.70;;
80247;SDS011;69560;52.206;21.018;2023-06-04T11:02:36;4.50;;;0.60;;
80247;SDS011;69560;52.206;21.018;2023-06-04T11:05:17;1.10;;;0.70;;
80247;SDS011;69560;52.206;21.018;2023-06-04T11:07:49;2.00;;;0.60;;
80247;SDS011;69560;52.206;21.018;2023-06-04T11:10:17;1.50;;;0.80;;
80247;SDS011;69560;52.206;21.018;2023-06-04T11:12:47;3.10;;;0.70;;
80247;SDS011;69560;52.206;21.018;2023-06-04T11:15:18;0.80;;;0.50;;
80247;SDS011;69560;52.206;21.018;2023-06-04T11:17:54;1.10;;;0.60;;
80247;SDS011;69560;52.206;21.018;2023-06-04T11:20:22;2.40;;;0.70;;
80247;SDS011;69560;52.206;21.018;2023-06-04T11:23:03;1.70;;;0.60;;
80247;SDS011;69560;52.206;21.018;2023-06-04T11:25:30;1.40;;;0.60;;
80247;SDS011;69560;52.206;21.018;2023-06-04T11:28:01;0.70;;;0.50;;
80247;SDS011;69560;52.206;21.018;2023-06-04T11:30:28;1.80;;;0.80;;
80247;SDS011;69560;52.206;21.018;2023-06-04T11:33:02;2.50;;;0.80;;
80247;SDS011;69560;52.206;21.018;2023-06-04T11:35:41;2.90;;;1.10;;
80247;SDS011;69560;52.206;21.018;2023-06-04T11:38:25;1.30;;;0.50;;
80247;SDS011;69560;52.206;21.018;2023-06-04T11:41:09;7.20;;;1.20;;
80247;SDS011;69560;52.206;21.018;2023-06-04T11:43:38;1.60;;;0.90;;
80247;SDS011;69560;52.206;21.018;2023-06-04T11:46:09;3.20;;;0.70;;
80247;SDS011;69560;52.206;21.018;2023-06-04T11:48:38;2.00;;;0.90;;
80247;SDS011;69560;52.206;21.018;2023-06-04T11:51:11;0.80;;;0.60;;
80247;SDS011;69560;52.206;21.018;2023-06-04T11:53:39;12.10;;;10.80;;
80247;SDS011;69560;52.206;21.018;2023-06-04T11:56:09;4.30;;;3.30;;
80247;SDS011;69560;52.206;21.018;2023-06-04T11:58:37;5.70;;;1.50;;
80247;SDS011;69560;52.206;21.018;2023-06-04T12:01:07;1.00;;;0.70;;
80247;SDS011;69560;52.206;21.018;2023-06-04T12:03:35;1.00;;;0.80;;
80247;SDS011;69560;52.206;21.018;2023-06-04T12:06:13;2.00;;;0.60;;
80247;SDS011;69560;52.206;21.018;2023-06-04T12:08:50;1.80;;;0.60;;
80247;SDS011;69560;52.206;21.018;2023-06-04T12:11:26;2.60;;;0.80;;
80247;SDS011;69560;52.206;21.018;2023-06-04T12:13:55;6.80;;;1.00;;
80247;SDS011;69560;52.206;21.018;2023-06-04T12:16:29;3.60;;;0.70;;
80247;SDS011;69560;52.206;21.018;2023-06-04T12:21:33;4.10;;;0.80;;
80247;SDS011;69560;52.206;21.018;2023-06-04T12:26:36;1.00;;;0.80;;
80247;SDS011;69560;52.206;21.018;2023-06-04T12:29:10;1.00;;;0.60;;
80247;SDS011;69560;52.206;21.018;2023-06-04T12:31:47;2.40;;;0.80;;
80247;SDS011;69560;52.206;21.018;2023-06-04T12:34:14;0.60;;;0.60;;
80247;SDS011;69560;52.206;21.018;2023-06-04T12:36:41;1.40;;;0.60;;
80247;SDS011;69560;52.206;21.018;2023-06-04T12:39:09;3.20;;;0.80;;
80247;SDS011;69560;52.206;21.018;2023-06-04T12:41:35;3.30;;;0.70;;
80247;SDS011;69560;52.206;21.018;2023-06-04T12:44:24;1.00;;;0.50;;
80247;SDS011;69560;52.206;21.018;2023-06-04T12:46:49;1.20;;;0.70;;
80247;SDS011;69560;52.206;21.018;2023-06-04T12:49:19;6.50;;;0.80;;
80247;SDS011;69560;52.206;21.018;2023-06-04T12:51:49;2.30;;;0.60;;
80247;SDS011;69560;52.206;21.018;2023-06-04T12:54:17;1.70;;;1.00;;
80247;SDS011;69560;52.206;21.018;2023-06-04T12:56:48;5.20;;;1.10;;
80247;SDS011;69560;52.206;21.018;2023-06-04T12:59:15;2.30;;;0.50;;
80247;SDS011;69560;52.206;21.018;2023-06-04T13:01:45;1.50;;;1.00;;
80247;SDS011;69560;52.206;21.018;2023-06-04T13:04:23;2.00;;;0.70;;
80247;SDS011;69560;52.206;21.018;2023-06-04T13:06:50;2.70;;;0.50;;
80247;SDS011;69560;52.206;21.018;2023-06-04T13:09:25;3.20;;;0.90;;
80247;SDS011;69560;52.206;21.018;2023-06-04T13:11:54;1.80;;;0.70;;
80247;SDS011;69560;52.206;21.018;2023-06-04T13:14:22;3.00;;;0.60;;
80247;SDS011;69560;52.206;21.018;2023-06-04T13:16:48;1.40;;;0.40;;
80247;SDS011;69560;52.206;21.018;2023-06-04T13:19:17;1.30;;;0.70;;
80247;SDS011;69560;52.206;21.018;2023-06-04T13:21:46;2.30;;;0.80;;
80247;SDS011;69560;52.206;21.018;2023-06-04T13:24:13;3.10;;;0.70;;
80247;SDS011;69560;52.206;21.018;2023-06-04T13:26:40;13.20;;;8.90;;
80247;SDS011;69560;52.206;21.018;2023-06-04T13:29:12;14.10;;;12.10;;
80247;SDS011;69560;52.206;21.018;2023-06-04T13:31:42;5.50;;;5.00;;
80247;SDS011;69560;52.206;21.018;2023-06-04T13:34:19;2.80;;;1.80;;
80247;SDS011;69560;52.206;21.018;2023-06-04T13:36:45;1.20;;;0.70;;
80247;SDS011;69560;52.206;21.018;2023-06-04T13:39:14;1.00;;;0.90;;
80247;SDS011;69560;52.206;21.018;2023-06-04T13:41:44;1.40;;;0.70;;
80247;SDS011;69560;52.206;21.018;2023-06-04T13:44:26;4.30;;;0.70;;
80247;SDS011;69560;52.206;21.018;2023-06-04T13:47:05;1.00;;;0.80;;
80247;SDS011;69560;52.206;21.018;2023-06-04T13:49:38;2.50;;;0.70;;
80247;SDS011;69560;52.206;21.018;2023-06-04T13:52:11;2.10;;;0.90;;
80247;SDS011;69560;52.206;21.018;2023-06-04T13:54:41;1.30;;;1.00;;
80247;SDS011;69560;52.206;21.018;2023-06-04T13:57:13;1.50;;;1.10;;
80247;SDS011;69560;52.206;21.018;2023-06-04T13:59:43;1.90;;;0.90;;
80247;SDS011;69560;52.206;21.018;2023-06-04T14:02:12;1.50;;;0.90;;
80247;SDS011;69560;52.206;21.018;2023-06-04T14:04:56;1.60;;;0.80;;
80247;SDS011;69560;52.206;21.018;2023-06-04T14:07:23;1.30;;;0.90;;
80247;SDS011;69560;52.206;21.018;2023-06-04T14:09:50;2.20;;;1.00;;
80247;SDS011;69560;52.206;21.018;2023-06-04T14:12:21;1.10;;;0.80;;
80247;SDS011;69560;52.206;21.018;2023-06-04T14:14:49;3.70;;;1.00;;
80247;SDS011;69560;52.206;21.018;2023-06-04T14:17:19;1.50;;;1.00;;
80247;SDS011;69560;52.206;21.018;2023-06-04T14:19:48;2.00;;;0.80;;
80247;SDS011;69560;52.206;21.018;2023-06-04T14:22:15;4.40;;;0.80;;
80247;SDS011;69560;52.206;21.018;2023-06-04T14:24:41;1.40;;;0.80;;
80247;SDS011;69560;52.206;21.018;2023-06-04T14:27:14;3.80;;;1.00;;
80247;SDS011;69560;52.206;21.018;2023-06-04T14:29:46;3.60;;;0.80;;
80247;SDS011;69560;52.206;21.018;2023-06-04T14:32:13;1.20;;;1.00;;
80247;SDS011;69560;52.206;21.018;2023-06-04T14:34:43;1.00;;;0.90;;
80247;SDS011;69560;52.206;21.018;2023-06-04T14:37:12;2.10;;;0.70;;
80247;SDS011;69560;52.206;21.018;2023-06-04T14:39:39;2.60;;;1.60;;
80247;SDS011;69560;52.206;21.018;2023-06-04T14:42:07;2.80;;;1.30;;
80247;SDS011;69560;52.206;21.018;2023-06-04T14:44:33;2.30;;;0.80;;
80247;SDS011;69560;52.206;21.018;2023-06-04T14:47:06;2.20;;;1.10;;
80247;SDS011;69560;52.206;21.018;2023-06-04T14:49:39;1.10;;;0.90;;
80247;SDS011;69560;52.206;21.018;2023-06-04T14:52:06;1.60;;;0.80;;
80247;SDS011;69560;52.206;21.018;2023-06-04T14:54:43;2.10;;;0.90;;
80247;SDS011;69560;52.206;21.018;2023-06-04T14:57:12;5.20;;;1.30;;
80247;SDS011;69560;52.206;21.018;2023-06-04T14:59:40;2.50;;;0.90;;
80247;SDS011;69560;52.206;21.018;2023-06-04T15:02:09;3.10;;;0.90;;
80247;SDS011;69560;52.206;21.018;2023-06-04T15:04:36;2.20;;;1.00;;
80247;SDS011;69560;52.206;21.018;2023-06-04T15:07:19;0.70;;;0.60;;
80247;SDS011;69560;52.206;21.018;2023-06-04T15:09:46;2.40;;;0.90;;
80247;SDS011;69560;52.206;21.018;2023-06-04T15:12:14;2.90;;;0.70;;
80247;SDS011;69560;52.206;21.018;2023-06-04T15:14:44;2.60;;;0.80;;
80247;SDS011;69560;52.206;21.018;2023-06-04T15:17:11;1.50;;;0.80;;
80247;SDS011;69560;52.206;21.018;2023-06-04T15:19:38;1.90;;;1.00;;
80247;SDS011;69560;52.206;21.018;2023-06-04T15:22:07;1.80;;;0.80;;
80247;SDS011;69560;52.206;21.018;2023-06-04T15:24:34;2.90;;;0.90;;
80247;SDS011;69560;52.206;21.018;2023-06-04T15:27:03;4.10;;;0.90;;
80247;SDS011;69560;52.206;21.018;2023-06-04T15:29:31;1.40;;;0.80;;
80247;SDS011;69560;52.206;21.018;2023-06-04T15:32:00;1.60;;;1.40;;
80247;SDS011;69560;52.206;21.018;2023-06-04T15:34:28;1.20;;;1.00;;
80247;SDS011;69560;52.206;21.018;2023-06-04T15:39:31;4.70;;;1.10;;